< < Back
Terminal Aerodrome Forecast


Current Version              Previous Versions:   1  2  3  4  5  6  7  8  9  

Terminal Aerodrome Forecast

699
FTAK31 PAJN 012343
TAFAHN
TAF
PAHN 012343Z 0200/0224 14008KT P6SM VCSH SCT018 BKN080
     FM020600 VRB03KT P6SM SCT015 OVC060
     FM021000 00000KT 4SM BR BKN015 OVC050
     FM021200 00000KT 3SM BR VCSH BKN007 OVC015
     FM021500 13004KT 6SM -SHRA BR SCT015 BKN040 OVC060
      AMD LTD TO CLD VIS AND WIND=

Latest METAR

408
SAUS70 KWBC 020154
MTRAHN
METAR KAHN 020151Z AUTO 00000KT 10SM CLR 26/17 A2994 RMK AO2 SLP130
T02560172


USA.gov is the U.S. government's official web portal to all federal, state and local government web resources and services.